Uberlandia, Brazil
Current Conditions -  °F | °C
As of 10:00 AM on Monday 24 Nov 2014 (Local Time) from SBUL Reporting Station
Scattered Clouds Scattered Clouds  
Wind Chill: 73°   Ceiling: Unl
Heat Index: 73°   Visibility: 6mi
Dew Point: 64°   Wind: 8mph
Humidity: 73%   Direction: 320°NW
Pressure: 30.09"   Gusts: NA
Location:  18.9°S, 48.28°W
Report Text: SBUL 241200Z 32007KT 9999 SCT011 23/18 Q1019
Loading
Personal Weather Stations






























Interactive Weather Map New forecast layout! Learn more

10-Day Weather Forecast

Advertisements
Track Severe Weather on mobile